AFL2138 UUEE-LTFM
Flight info
| Callsign | AFL2138 |
|---|---|
| Flight time | 4h 38m |
| Altitude | 33000 |
| Route | TOGMO3E TOGMO M56 ABAGI B105 NATIT DCT MOLED DCT LIDUS G242 ZG DCT ITAKA DCT OBBUD DCT AMKOL DCT GOTIK DCT MEMZA DCT VENFO DCT BINOL G487 ODIRA/N0443F330 UW96 SIN UW90 INB UL746 ADUMU UT310 NUGBA |
| Aircraft | A321/M-MSADIE2E3FGHJ1RWY/LB1U1 |
Departure
| Time | 2026-05-06 22:00 |
|---|---|
| Airport | Sheremetyevo International Airport (UUEE) |
Arrival
| Time | 2026-05-07 02:38 |
|---|---|
| Airport | İstanbul Airport (LTFM) |
| Time | Latitude | Longitude | Altitude | Speed | Heading |
|---|---|---|---|---|---|
| 2026-05-06 21:05 | 55.97785 | 37.41317 | 639 ft | 0 kts | 256° |
| 2026-05-06 21:36 | 55.97785 | 37.41318 | 639 ft | 0 kts | 256° |
| 2026-05-06 21:46 | 55.97789 | 37.41344 | 644 ft | 4 kts | 256° |
| 2026-05-06 21:46 | 55.97796 | 37.41391 | 642 ft | 4 kts | 256° |
| 2026-05-06 21:46 | 55.97801 | 37.41429 | 639 ft | 3 kts | 255° |
| 2026-05-06 21:47 | 55.97810 | 37.41463 | 645 ft | 4 kts | 200° |
| 2026-05-06 21:47 | 55.97827 | 37.41465 | 640 ft | 2 kts | 165° |
| 2026-05-06 21:47 | 55.97802 | 37.41477 | 645 ft | 4 kts | 165° |
| 2026-05-06 21:47 | 55.97790 | 37.41483 | 647 ft | 2 kts | 165° |
| 2026-05-06 21:52 | 55.97773 | 37.41491 | 639 ft | 5 kts | 165° |
| 2026-05-06 21:52 | 55.97740 | 37.41507 | 639 ft | 6 kts | 165° |
| 2026-05-06 21:52 | 55.97686 | 37.41551 | 639 ft | 11 kts | 140° |
| 2026-05-06 21:53 | 55.97618 | 37.41599 | 642 ft | 10 kts | 191° |
| 2026-05-06 21:53 | 55.97581 | 37.41488 | 641 ft | 13 kts | 254° |
| 2026-05-06 21:53 | 55.97553 | 37.41302 | 641 ft | 18 kts | 255° |
| 2026-05-06 21:53 | 55.97522 | 37.41095 | 639 ft | 16 kts | 255° |
| 2026-05-06 21:54 | 55.97493 | 37.40907 | 643 ft | 15 kts | 255° |
| 2026-05-06 21:54 | 55.97467 | 37.40732 | 641 ft | 15 kts | 255° |
| 2026-05-06 21:54 | 55.97441 | 37.40554 | 643 ft | 15 kts | 255° |
| 2026-05-06 21:54 | 55.97413 | 37.40371 | 642 ft | 15 kts | 255° |
| 2026-05-06 21:55 | 55.97385 | 37.40182 | 642 ft | 16 kts | 255° |
| 2026-05-06 21:55 | 55.97356 | 37.39987 | 645 ft | 16 kts | 255° |
| 2026-05-06 21:55 | 55.97326 | 37.39788 | 641 ft | 17 kts | 255° |
| 2026-05-06 21:55 | 55.97296 | 37.39585 | 641 ft | 17 kts | 255° |
| 2026-05-06 21:56 | 55.97265 | 37.39381 | 644 ft | 17 kts | 255° |
| 2026-05-06 21:56 | 55.97233 | 37.39167 | 639 ft | 18 kts | 255° |
| 2026-05-06 21:56 | 55.97201 | 37.38953 | 640 ft | 18 kts | 255° |
| 2026-05-06 21:56 | 55.97174 | 37.38775 | 639 ft | 12 kts | 255° |
| 2026-05-06 21:57 | 55.97134 | 37.38656 | 642 ft | 12 kts | 194° |
| 2026-05-06 21:57 | 55.97054 | 37.38681 | 641 ft | 12 kts | 167° |
| 2026-05-06 21:57 | 55.96998 | 37.38707 | 639 ft | 1 kts | 159° |
| 2026-05-06 21:57 | 55.96991 | 37.38724 | 639 ft | 2 kts | 120° |
| 2026-05-06 21:58 | 55.96992 | 37.38748 | 639 ft | 2 kts | 78° |
| 2026-05-06 21:58 | 55.96999 | 37.38779 | 641 ft | 4 kts | 72° |
| 2026-05-06 21:58 | 55.97001 | 37.38800 | 642 ft | 0 kts | 77° |
| 2026-05-06 21:59 | 55.97018 | 37.38908 | 641 ft | 37 kts | 73° |
| 2026-05-06 21:59 | 55.97146 | 37.39759 | 646 ft | 102 kts | 75° |
| 2026-05-06 21:59 | 55.97374 | 37.41293 | 641 ft | 151 kts | 75° |
| 2026-05-06 21:59 | 55.97676 | 37.43290 | 694 ft | 183 kts | 73° |
| 2026-05-06 22:00 | 55.97891 | 37.45576 | 1303 ft | 183 kts | 86° |
| 2026-05-06 22:00 | 55.97895 | 37.47790 | 2018 ft | 179 kts | 91° |
| 2026-05-06 22:00 | 55.97871 | 37.50010 | 2565 ft | 178 kts | 92° |
| 2026-05-06 22:00 | 55.97849 | 37.52307 | 2745 ft | 194 kts | 92° |
| 2026-05-06 22:01 | 55.97833 | 37.54824 | 2866 ft | 212 kts | 91° |
| 2026-05-06 22:01 | 55.97825 | 37.57580 | 2993 ft | 233 kts | 91° |
| 2026-05-06 22:01 | 55.97826 | 37.60629 | 3221 ft | 255 kts | 91° |
| 2026-05-06 22:01 | 55.97833 | 37.62766 | 3562 ft | 263 kts | 91° |
| 2026-05-06 22:02 | 55.97858 | 37.66076 | 4137 ft | 270 kts | 92° |
| 2026-05-06 22:02 | 55.97445 | 37.69342 | 4656 ft | 274 kts | 122° |
| 2026-05-06 22:02 | 55.96205 | 37.71889 | 5234 ft | 274 kts | 149° |
| 2026-05-06 22:02 | 55.94527 | 37.73461 | 5863 ft | 275 kts | 159° |
| 2026-05-06 22:03 | 55.92807 | 37.75001 | 6518 ft | 281 kts | 150° |
| 2026-05-06 22:03 | 55.91237 | 37.77139 | 7159 ft | 286 kts | 144° |
| 2026-05-06 22:03 | 55.89703 | 37.79433 | 7827 ft | 290 kts | 143° |
| 2026-05-06 22:03 | 55.88158 | 37.81771 | 8485 ft | 293 kts | 143° |
| 2026-05-06 22:04 | 55.86580 | 37.84086 | 9133 ft | 294 kts | 150° |
| 2026-05-06 22:04 | 55.84776 | 37.85759 | 9767 ft | 293 kts | 159° |
| 2026-05-06 22:04 | 55.82915 | 37.87308 | 10279 ft | 301 kts | 159° |
| 2026-05-06 22:04 | 55.80943 | 37.88932 | 10401 ft | 322 kts | 159° |
| 2026-05-06 22:05 | 55.78847 | 37.90651 | 10530 ft | 342 kts | 159° |
| 2026-05-06 22:05 | 55.76656 | 37.92452 | 10713 ft | 359 kts | 159° |
| 2026-05-06 22:05 | 55.74369 | 37.94344 | 11184 ft | 365 kts | 158° |
| 2026-05-06 22:05 | 55.72052 | 37.96268 | 11747 ft | 369 kts | 158° |
| 2026-05-06 22:06 | 55.69707 | 37.98214 | 12319 ft | 373 kts | 158° |
| 2026-05-06 22:06 | 55.67346 | 38.00171 | 12914 ft | 377 kts | 158° |
| 2026-05-06 22:06 | 55.64955 | 38.02151 | 13487 ft | 381 kts | 158° |
| 2026-05-06 22:06 | 55.62554 | 38.04133 | 14072 ft | 378 kts | 158° |
| 2026-05-06 22:07 | 55.60176 | 38.06097 | 14789 ft | 376 kts | 158° |
| 2026-05-06 22:07 | 55.57802 | 38.08054 | 15277 ft | 381 kts | 158° |
| 2026-05-06 22:07 | 55.55368 | 38.10049 | 15586 ft | 390 kts | 158° |
| 2026-05-06 22:07 | 55.52928 | 38.12045 | 16047 ft | 394 kts | 158° |
| 2026-05-06 22:08 | 55.50436 | 38.14079 | 16547 ft | 396 kts | 158° |
| 2026-05-06 22:08 | 55.47894 | 38.16151 | 17060 ft | 399 kts | 158° |
| 2026-05-06 22:08 | 55.45399 | 38.18183 | 17549 ft | 401 kts | 158° |
| 2026-05-06 22:08 | 55.42859 | 38.20251 | 18026 ft | 404 kts | 158° |
| 2026-05-06 22:09 | 55.40296 | 38.22335 | 18466 ft | 406 kts | 158° |
| 2026-05-06 22:09 | 55.37722 | 38.24432 | 18892 ft | 408 kts | 158° |
| 2026-05-06 22:09 | 55.35139 | 38.26531 | 19310 ft | 411 kts | 158° |
| 2026-05-06 22:09 | 55.32537 | 38.28641 | 19726 ft | 413 kts | 158° |
| 2026-05-06 22:10 | 55.29924 | 38.30757 | 20131 ft | 415 kts | 158° |
| 2026-05-06 22:10 | 55.27290 | 38.32880 | 20539 ft | 417 kts | 158° |
| 2026-05-06 22:10 | 55.24646 | 38.35005 | 20942 ft | 419 kts | 158° |
| 2026-05-06 22:10 | 55.21986 | 38.37145 | 21331 ft | 422 kts | 158° |
| 2026-05-06 22:11 | 55.19306 | 38.39299 | 21714 ft | 424 kts | 158° |
| 2026-05-06 22:11 | 55.16616 | 38.41459 | 22114 ft | 427 kts | 158° |
| 2026-05-06 22:11 | 55.13910 | 38.43628 | 22505 ft | 429 kts | 158° |
| 2026-05-06 22:11 | 55.11225 | 38.45777 | 22898 ft | 431 kts | 158° |
| 2026-05-06 22:12 | 55.08488 | 38.47957 | 23292 ft | 434 kts | 158° |
| 2026-05-06 22:12 | 55.05732 | 38.50146 | 23652 ft | 436 kts | 158° |
| 2026-05-06 22:12 | 55.02965 | 38.52349 | 23964 ft | 438 kts | 158° |
| 2026-05-06 22:12 | 55.00189 | 38.54561 | 24281 ft | 439 kts | 157° |
| 2026-05-06 22:13 | 54.97408 | 38.56780 | 24608 ft | 441 kts | 157° |
| 2026-05-06 22:13 | 54.94610 | 38.59006 | 24935 ft | 443 kts | 157° |
| 2026-05-06 22:13 | 54.91799 | 38.61235 | 25262 ft | 444 kts | 157° |
| 2026-05-06 22:13 | 54.88986 | 38.63457 | 25593 ft | 445 kts | 157° |
| 2026-05-06 22:14 | 54.86161 | 38.65683 | 25911 ft | 446 kts | 157° |
| 2026-05-06 22:14 | 54.83323 | 38.67912 | 26225 ft | 448 kts | 157° |
| 2026-05-06 22:14 | 54.80513 | 38.70121 | 26517 ft | 450 kts | 157° |
| 2026-05-06 22:14 | 54.77656 | 38.72366 | 26807 ft | 452 kts | 157° |
| 2026-05-06 22:15 | 54.74789 | 38.74614 | 27099 ft | 453 kts | 157° |
| 2026-05-06 22:15 | 54.71907 | 38.76867 | 27384 ft | 455 kts | 157° |
| 2026-05-06 22:15 | 54.69021 | 38.79125 | 27665 ft | 456 kts | 157° |
| 2026-05-06 22:15 | 54.66128 | 38.81392 | 27947 ft | 458 kts | 156° |
| 2026-05-06 22:16 | 54.63215 | 38.83672 | 28219 ft | 460 kts | 157° |
| 2026-05-06 22:16 | 54.60289 | 38.85949 | 28496 ft | 461 kts | 156° |
| 2026-05-06 22:16 | 54.57354 | 38.88219 | 28774 ft | 463 kts | 157° |
| 2026-05-06 22:16 | 54.54416 | 38.90487 | 29166 ft | 462 kts | 157° |
| 2026-05-06 22:17 | 54.51490 | 38.92748 | 29535 ft | 460 kts | 156° |
| 2026-05-06 22:17 | 54.48575 | 38.95003 | 29920 ft | 459 kts | 156° |
| 2026-05-06 22:17 | 54.45664 | 38.97257 | 30245 ft | 458 kts | 156° |
| 2026-05-06 22:17 | 54.42884 | 38.99916 | 30528 ft | 458 kts | 146° |
| 2026-05-06 22:18 | 54.40400 | 39.03342 | 30832 ft | 458 kts | 136° |
| 2026-05-06 22:18 | 54.38290 | 39.07439 | 31117 ft | 458 kts | 126° |
| 2026-05-06 22:18 | 54.36630 | 39.12023 | 31396 ft | 459 kts | 117° |
| 2026-05-06 22:18 | 54.35345 | 39.17096 | 31683 ft | 459 kts | 112° |
| 2026-05-06 22:19 | 54.34153 | 39.22096 | 31970 ft | 458 kts | 112° |
| 2026-05-06 22:19 | 54.32940 | 39.27156 | 32276 ft | 458 kts | 112° |
| 2026-05-06 22:19 | 54.31722 | 39.32201 | 32577 ft | 458 kts | 113° |
| 2026-05-06 22:19 | 54.30499 | 39.37237 | 32883 ft | 457 kts | 113° |
| 2026-05-06 22:20 | 54.29275 | 39.42260 | 33194 ft | 457 kts | 113° |
| 2026-05-06 22:20 | 54.28048 | 39.47288 | 33497 ft | 456 kts | 113° |
| 2026-05-06 22:20 | 54.26824 | 39.52291 | 33791 ft | 456 kts | 113° |
| 2026-05-06 22:20 | 54.25599 | 39.57275 | 34052 ft | 455 kts | 113° |
| 2026-05-06 22:21 | 54.24366 | 39.62278 | 34276 ft | 455 kts | 113° |
| 2026-05-06 22:21 | 54.23138 | 39.67255 | 34495 ft | 455 kts | 113° |
| 2026-05-06 22:21 | 54.21903 | 39.72251 | 34712 ft | 455 kts | 113° |
| 2026-05-06 22:21 | 54.20672 | 39.77235 | 34901 ft | 456 kts | 113° |
| 2026-05-06 22:22 | 54.18241 | 39.87045 | 34956 ft | 454 kts | 113° |
| 2026-05-06 22:22 | 54.15778 | 39.96957 | 34952 ft | 453 kts | 113° |
| 2026-05-06 22:23 | 54.13316 | 40.06847 | 34954 ft | 453 kts | 113° |
| 2026-05-06 22:23 | 54.11081 | 40.16909 | 34949 ft | 453 kts | 106° |
| 2026-05-06 22:24 | 54.09302 | 40.27219 | 34953 ft | 454 kts | 107° |
| 2026-05-06 22:24 | 54.07509 | 40.37546 | 34950 ft | 454 kts | 106° |
| 2026-05-06 22:25 | 54.05707 | 40.47851 | 34952 ft | 454 kts | 107° |
| 2026-05-06 22:25 | 54.03894 | 40.58137 | 34955 ft | 454 kts | 107° |
| 2026-05-06 22:26 | 54.02078 | 40.68440 | 34952 ft | 454 kts | 107° |
| 2026-05-06 22:26 | 54.00266 | 40.78654 | 34954 ft | 454 kts | 107° |
| 2026-05-06 22:27 | 53.98429 | 40.88916 | 34955 ft | 454 kts | 107° |
| 2026-05-06 22:27 | 53.96577 | 40.99180 | 34956 ft | 454 kts | 107° |
| 2026-05-06 22:28 | 53.94753 | 41.09443 | 34952 ft | 454 kts | 106° |
| 2026-05-06 22:28 | 53.93075 | 41.19766 | 34949 ft | 454 kts | 105° |
| 2026-05-06 22:29 | 53.91427 | 41.30110 | 34945 ft | 454 kts | 105° |
| 2026-05-06 22:29 | 53.89745 | 41.40358 | 34940 ft | 454 kts | 105° |
| 2026-05-06 22:30 | 53.88024 | 41.50655 | 34937 ft | 454 kts | 105° |
| 2026-05-06 22:30 | 53.86293 | 41.60937 | 34929 ft | 454 kts | 106° |
| 2026-05-06 22:31 | 53.84545 | 41.71213 | 34928 ft | 454 kts | 106° |
| 2026-05-06 22:31 | 53.82798 | 41.81484 | 34929 ft | 454 kts | 106° |
| 2026-05-06 22:32 | 53.81047 | 41.91743 | 34925 ft | 454 kts | 106° |
| 2026-05-06 22:32 | 53.79277 | 42.01993 | 34924 ft | 454 kts | 106° |
| 2026-05-06 22:33 | 53.77506 | 42.12160 | 34913 ft | 454 kts | 107° |
| 2026-05-06 22:33 | 53.75717 | 42.22393 | 34915 ft | 454 kts | 106° |
| 2026-05-06 22:34 | 53.73924 | 42.32629 | 34920 ft | 454 kts | 107° |
| 2026-05-06 22:34 | 53.72127 | 42.42844 | 34918 ft | 454 kts | 107° |
| 2026-05-06 22:35 | 53.70310 | 42.53050 | 34918 ft | 454 kts | 107° |
| 2026-05-06 22:35 | 53.67700 | 42.62684 | 34912 ft | 452 kts | 126° |
| 2026-05-06 22:36 | 53.63309 | 42.70166 | 34906 ft | 450 kts | 146° |
| 2026-05-06 22:36 | 53.57747 | 42.74892 | 34903 ft | 448 kts | 157° |
| 2026-05-06 22:37 | 53.52014 | 42.79015 | 34902 ft | 448 kts | 157° |
| 2026-05-06 22:37 | 53.46273 | 42.83129 | 34897 ft | 449 kts | 157° |
| 2026-05-06 22:38 | 53.40536 | 42.87252 | 34900 ft | 448 kts | 157° |
| 2026-05-06 22:38 | 53.34798 | 42.91366 | 34902 ft | 449 kts | 157° |
| 2026-05-06 22:39 | 53.29057 | 42.95471 | 34905 ft | 449 kts | 157° |
| 2026-05-06 22:39 | 53.23312 | 42.99557 | 34910 ft | 448 kts | 157° |
| 2026-05-06 22:40 | 53.17571 | 43.03623 | 34913 ft | 448 kts | 157° |
| 2026-05-06 22:40 | 53.11838 | 43.07688 | 34916 ft | 448 kts | 156° |
| 2026-05-06 22:41 | 53.03345 | 43.14016 | 34910 ft | 447 kts | 155° |
| 2026-05-06 22:42 | 52.97677 | 43.18286 | 34907 ft | 447 kts | 156° |
| 2026-05-06 22:42 | 52.91991 | 43.22492 | 34911 ft | 447 kts | 156° |
| 2026-05-06 22:43 | 52.86296 | 43.26671 | 34909 ft | 447 kts | 156° |
| 2026-05-06 22:43 | 52.80607 | 43.30850 | 34907 ft | 447 kts | 156° |
| 2026-05-06 22:44 | 52.74913 | 43.35033 | 34911 ft | 447 kts | 156° |
| 2026-05-06 22:44 | 52.69197 | 43.39211 | 34912 ft | 448 kts | 156° |
| 2026-05-06 22:45 | 52.63524 | 43.43345 | 34913 ft | 447 kts | 156° |
| 2026-05-06 22:45 | 52.57842 | 43.47465 | 34902 ft | 447 kts | 156° |
| 2026-05-06 22:46 | 52.52149 | 43.51580 | 34900 ft | 447 kts | 156° |
| 2026-05-06 22:46 | 52.46427 | 43.55718 | 34900 ft | 447 kts | 156° |
| 2026-05-06 22:47 | 52.40722 | 43.59840 | 34903 ft | 447 kts | 156° |
| 2026-05-06 22:47 | 52.35051 | 43.63916 | 34906 ft | 447 kts | 156° |
| 2026-05-06 22:48 | 52.29323 | 43.68019 | 34900 ft | 447 kts | 155° |
| 2026-05-06 22:48 | 52.23645 | 43.72060 | 34896 ft | 448 kts | 156° |
| 2026-05-06 22:49 | 52.17913 | 43.76127 | 34896 ft | 449 kts | 155° |
| 2026-05-06 22:49 | 52.15059 | 43.78160 | 34559 ft | 447 kts | 155° |
| 2026-05-06 22:49 | 52.12207 | 43.80189 | 34071 ft | 445 kts | 155° |
| 2026-05-06 22:49 | 52.09374 | 43.82202 | 33886 ft | 445 kts | 155° |
| 2026-05-06 22:50 | 52.06531 | 43.84217 | 33914 ft | 447 kts | 156° |
| 2026-05-06 22:50 | 52.00813 | 43.88259 | 33909 ft | 448 kts | 155° |
| 2026-05-06 22:51 | 51.96065 | 43.91609 | 33907 ft | 448 kts | 156° |
| 2026-05-06 22:51 | 51.90342 | 43.95632 | 33908 ft | 448 kts | 156° |
| 2026-05-06 22:52 | 51.84623 | 43.99636 | 33909 ft | 448 kts | 156° |
| 2026-05-06 22:52 | 51.78897 | 44.03633 | 33902 ft | 448 kts | 156° |
| 2026-05-06 22:53 | 51.73183 | 44.07615 | 33899 ft | 448 kts | 156° |
| 2026-05-06 22:53 | 51.67464 | 44.11590 | 33902 ft | 447 kts | 156° |
| 2026-05-06 22:54 | 51.61748 | 44.15557 | 33897 ft | 447 kts | 156° |
| 2026-05-06 22:54 | 51.56039 | 44.19514 | 33900 ft | 447 kts | 156° |
| 2026-05-06 22:55 | 51.50320 | 44.23449 | 33899 ft | 447 kts | 156° |
| 2026-05-06 22:55 | 51.44590 | 44.27379 | 33900 ft | 447 kts | 156° |
| 2026-05-06 22:56 | 51.38902 | 44.31281 | 33905 ft | 447 kts | 156° |
| 2026-05-06 22:56 | 51.33182 | 44.35189 | 33899 ft | 447 kts | 156° |
| 2026-05-06 22:57 | 51.27429 | 44.39119 | 33902 ft | 447 kts | 156° |
| 2026-05-06 22:57 | 51.21749 | 44.42980 | 33897 ft | 446 kts | 156° |
| 2026-05-06 22:58 | 51.15863 | 44.46057 | 33896 ft | 447 kts | 170° |
| 2026-05-06 22:58 | 51.09659 | 44.46316 | 33894 ft | 448 kts | 183° |
| 2026-05-06 22:59 | 51.03441 | 44.45707 | 33896 ft | 448 kts | 183° |
| 2026-05-06 22:59 | 50.97221 | 44.45140 | 33898 ft | 448 kts | 182° |
| 2026-05-06 23:00 | 50.90995 | 44.44579 | 33897 ft | 448 kts | 182° |
| 2026-05-06 23:00 | 50.84760 | 44.44002 | 33899 ft | 448 kts | 182° |
| 2026-05-06 23:01 | 50.78530 | 44.43422 | 33903 ft | 448 kts | 182° |
| 2026-05-06 23:01 | 50.72296 | 44.42842 | 33901 ft | 449 kts | 182° |
| 2026-05-06 23:02 | 50.66067 | 44.42258 | 33893 ft | 449 kts | 182° |
| 2026-05-06 23:02 | 50.59833 | 44.41686 | 33905 ft | 449 kts | 182° |
| 2026-05-06 23:03 | 50.53598 | 44.41113 | 33903 ft | 449 kts | 182° |
| 2026-05-06 23:03 | 50.47356 | 44.40542 | 33907 ft | 449 kts | 182° |
| 2026-05-06 23:04 | 50.41128 | 44.39977 | 33906 ft | 450 kts | 182° |
| 2026-05-06 23:04 | 50.34899 | 44.39401 | 33908 ft | 450 kts | 182° |
| 2026-05-06 23:05 | 50.28621 | 44.38822 | 33913 ft | 450 kts | 182° |
| 2026-05-06 23:05 | 50.22360 | 44.38255 | 33921 ft | 450 kts | 182° |
| 2026-05-06 23:06 | 50.16138 | 44.37701 | 33918 ft | 450 kts | 183° |
| 2026-05-06 23:06 | 50.09895 | 44.37141 | 33922 ft | 450 kts | 183° |
| 2026-05-06 23:07 | 50.03651 | 44.36579 | 33924 ft | 449 kts | 183° |
| 2026-05-06 23:07 | 49.97400 | 44.36021 | 33929 ft | 449 kts | 183° |
| 2026-05-06 23:08 | 49.91195 | 44.35460 | 33923 ft | 449 kts | 183° |
| 2026-05-06 23:08 | 49.84938 | 44.34899 | 33925 ft | 448 kts | 183° |
| 2026-05-06 23:09 | 49.78724 | 44.34354 | 33918 ft | 449 kts | 182° |
| 2026-05-06 23:09 | 49.72492 | 44.33811 | 33917 ft | 449 kts | 183° |
| 2026-05-06 23:10 | 49.66223 | 44.33253 | 33914 ft | 449 kts | 182° |
| 2026-05-06 23:10 | 49.60008 | 44.32780 | 33922 ft | 449 kts | 178° |
| 2026-05-06 23:11 | 49.53850 | 44.34387 | 33922 ft | 447 kts | 159° |
| 2026-05-06 23:11 | 49.48104 | 44.37992 | 33924 ft | 446 kts | 156° |
| 2026-05-06 23:12 | 49.42388 | 44.41628 | 33929 ft | 447 kts | 156° |
| 2026-05-06 23:12 | 49.36643 | 44.45266 | 33931 ft | 447 kts | 156° |
| 2026-05-06 23:13 | 49.30894 | 44.48893 | 33936 ft | 446 kts | 156° |
| 2026-05-06 23:13 | 49.25153 | 44.52515 | 33949 ft | 446 kts | 156° |
| 2026-05-06 23:14 | 49.19401 | 44.56135 | 33952 ft | 445 kts | 156° |
| 2026-05-06 23:14 | 49.13717 | 44.59710 | 33951 ft | 444 kts | 156° |
| 2026-05-06 23:15 | 49.07994 | 44.63299 | 33952 ft | 443 kts | 156° |
| 2026-05-06 23:15 | 49.02286 | 44.66864 | 33948 ft | 443 kts | 156° |
| 2026-05-06 23:16 | 48.96594 | 44.70413 | 33943 ft | 442 kts | 156° |
| 2026-05-06 23:16 | 48.90914 | 44.73932 | 33944 ft | 442 kts | 156° |
| 2026-05-06 23:17 | 48.85197 | 44.77475 | 33937 ft | 442 kts | 156° |
| 2026-05-06 23:17 | 48.79783 | 44.81770 | 33931 ft | 440 kts | 149° |
| 2026-05-06 23:18 | 48.74461 | 44.86374 | 33928 ft | 440 kts | 149° |
| 2026-05-06 23:18 | 48.69133 | 44.90944 | 33930 ft | 441 kts | 149° |
| 2026-05-06 23:19 | 48.63788 | 44.95508 | 33926 ft | 441 kts | 149° |
| 2026-05-06 23:19 | 48.58465 | 45.00046 | 33935 ft | 441 kts | 149° |
| 2026-05-06 23:20 | 48.53062 | 45.04662 | 33948 ft | 445 kts | 149° |
| 2026-05-06 23:20 | 48.47693 | 45.09226 | 33947 ft | 442 kts | 149° |
| 2026-05-06 23:21 | 48.42321 | 45.13774 | 33942 ft | 441 kts | 148° |
| 2026-05-06 23:21 | 48.36985 | 45.18289 | 33934 ft | 440 kts | 148° |
| 2026-05-06 23:22 | 48.31651 | 45.22798 | 33930 ft | 439 kts | 148° |
| 2026-05-06 23:22 | 48.26345 | 45.27257 | 33929 ft | 439 kts | 148° |
| 2026-05-06 23:23 | 48.20988 | 45.31754 | 33924 ft | 439 kts | 148° |
| 2026-05-06 23:23 | 48.15665 | 45.36211 | 33921 ft | 439 kts | 148° |
| 2026-05-06 23:24 | 48.10348 | 45.40656 | 33917 ft | 439 kts | 148° |
| 2026-05-06 23:24 | 48.04992 | 45.45124 | 33918 ft | 440 kts | 148° |
| 2026-05-06 23:25 | 47.99658 | 45.49552 | 33912 ft | 439 kts | 148° |
| 2026-05-06 23:25 | 47.94289 | 45.53990 | 33907 ft | 439 kts | 148° |
| 2026-05-06 23:26 | 47.88982 | 45.58385 | 33909 ft | 440 kts | 148° |
| 2026-05-06 23:26 | 47.83611 | 45.62840 | 33913 ft | 440 kts | 148° |
| 2026-05-06 23:27 | 47.78254 | 45.67252 | 33910 ft | 440 kts | 148° |
| 2026-05-06 23:27 | 47.72905 | 45.71646 | 33910 ft | 440 kts | 148° |
| 2026-05-06 23:28 | 47.67539 | 45.76047 | 33901 ft | 441 kts | 148° |
| 2026-05-06 23:28 | 47.62167 | 45.80443 | 33900 ft | 441 kts | 148° |
| 2026-05-06 23:29 | 47.56783 | 45.84835 | 33900 ft | 441 kts | 148° |
| 2026-05-06 23:29 | 47.51414 | 45.89207 | 33902 ft | 442 kts | 148° |
| 2026-05-06 23:30 | 47.46021 | 45.93580 | 33904 ft | 442 kts | 149° |
| 2026-05-06 23:30 | 47.40651 | 45.97915 | 33903 ft | 443 kts | 149° |
| 2026-05-06 23:31 | 47.35227 | 46.02295 | 33912 ft | 443 kts | 149° |
| 2026-05-06 23:31 | 47.29817 | 46.06668 | 33911 ft | 443 kts | 149° |
| 2026-05-06 23:32 | 47.24427 | 46.11019 | 33914 ft | 444 kts | 149° |
| 2026-05-06 23:32 | 47.19001 | 46.15371 | 33919 ft | 444 kts | 149° |
| 2026-05-06 23:33 | 47.14439 | 46.19019 | 33916 ft | 444 kts | 149° |
| 2026-05-06 23:33 | 47.09041 | 46.23338 | 33916 ft | 444 kts | 148° |
| 2026-05-06 23:34 | 47.04232 | 46.28915 | 33916 ft | 440 kts | 130° |
| 2026-05-06 23:34 | 47.00697 | 46.36228 | 33907 ft | 438 kts | 121° |
| 2026-05-06 23:35 | 46.97444 | 46.43732 | 33907 ft | 438 kts | 121° |
| 2026-05-06 23:35 | 46.94149 | 46.51281 | 33907 ft | 439 kts | 121° |
| 2026-05-06 23:36 | 46.90857 | 46.58800 | 33911 ft | 439 kts | 121° |
| 2026-05-06 23:36 | 46.87554 | 46.66337 | 33911 ft | 440 kts | 121° |
| 2026-05-06 23:37 | 46.84258 | 46.73861 | 33909 ft | 440 kts | 122° |
| 2026-05-06 23:37 | 46.80951 | 46.81366 | 33909 ft | 440 kts | 122° |
| 2026-05-06 23:38 | 46.77649 | 46.88826 | 33909 ft | 439 kts | 122° |
| 2026-05-06 23:38 | 46.74322 | 46.96325 | 33902 ft | 440 kts | 122° |
| 2026-05-06 23:39 | 46.70985 | 47.03831 | 33903 ft | 441 kts | 122° |
| 2026-05-06 23:39 | 46.67650 | 47.11358 | 33902 ft | 442 kts | 121° |
| 2026-05-06 23:40 | 46.64388 | 47.18871 | 33907 ft | 442 kts | 121° |
| 2026-05-06 23:40 | 46.61094 | 47.26496 | 33908 ft | 443 kts | 121° |
| 2026-05-06 23:41 | 46.57797 | 47.34027 | 33910 ft | 443 kts | 122° |
| 2026-05-06 23:41 | 46.54468 | 47.41585 | 33909 ft | 444 kts | 122° |
| 2026-05-06 23:42 | 46.51125 | 47.49166 | 33914 ft | 444 kts | 122° |
| 2026-05-06 23:42 | 46.47812 | 47.56689 | 33911 ft | 445 kts | 122° |
| 2026-05-06 23:43 | 46.44457 | 47.64283 | 33902 ft | 446 kts | 122° |
| 2026-05-06 23:43 | 46.41114 | 47.71812 | 33909 ft | 447 kts | 122° |
| 2026-05-06 23:44 | 46.37726 | 47.79427 | 33913 ft | 447 kts | 122° |
| 2026-05-06 23:44 | 46.34360 | 47.86973 | 33911 ft | 449 kts | 122° |
| 2026-05-06 23:45 | 46.30975 | 47.94533 | 33907 ft | 448 kts | 122° |
| 2026-05-06 23:45 | 46.28039 | 48.02519 | 33897 ft | 447 kts | 108° |
| 2026-05-06 23:46 | 46.26556 | 48.11209 | 33902 ft | 447 kts | 101° |
| 2026-05-06 23:46 | 46.25216 | 48.19993 | 33904 ft | 449 kts | 102° |
| 2026-05-06 23:47 | 46.23856 | 48.28815 | 33902 ft | 450 kts | 102° |
| 2026-05-06 23:47 | 46.22487 | 48.37669 | 33903 ft | 451 kts | 102° |
| 2026-05-06 23:48 | 46.21125 | 48.46452 | 33904 ft | 452 kts | 102° |
| 2026-05-06 23:48 | 46.20177 | 48.50827 | 33894 ft | 452 kts | 114° |
| 2026-05-06 23:48 | 46.18671 | 48.54761 | 33893 ft | 453 kts | 126° |
| 2026-05-06 23:48 | 46.16618 | 48.58236 | 33892 ft | 453 kts | 137° |
| 2026-05-06 23:49 | 46.14176 | 48.61024 | 33891 ft | 452 kts | 148° |
| 2026-05-06 23:49 | 46.11357 | 48.63086 | 33893 ft | 451 kts | 160° |
| 2026-05-06 23:49 | 46.08359 | 48.64393 | 33898 ft | 451 kts | 165° |
| 2026-05-06 23:50 | 46.02306 | 48.66807 | 33901 ft | 452 kts | 165° |
| 2026-05-06 23:50 | 45.93234 | 48.70450 | 33916 ft | 453 kts | 165° |
| 2026-05-06 23:51 | 45.87127 | 48.72907 | 33920 ft | 453 kts | 165° |
| 2026-05-06 23:51 | 45.81053 | 48.75336 | 33928 ft | 454 kts | 166° |
| 2026-05-06 23:52 | 45.74937 | 48.76871 | 33923 ft | 448 kts | 185° |
| 2026-05-06 23:52 | 45.71897 | 48.76080 | 33921 ft | 444 kts | 201° |
| 2026-05-06 23:52 | 45.69041 | 48.74402 | 33922 ft | 443 kts | 205° |
| 2026-05-06 23:53 | 45.63385 | 48.70864 | 33922 ft | 444 kts | 205° |
| 2026-05-06 23:53 | 45.57732 | 48.67322 | 33927 ft | 444 kts | 205° |
| 2026-05-06 23:54 | 45.52069 | 48.63801 | 33935 ft | 444 kts | 205° |
| 2026-05-06 23:54 | 45.46394 | 48.60296 | 33946 ft | 444 kts | 205° |
| 2026-05-06 23:55 | 45.40732 | 48.56803 | 33954 ft | 443 kts | 205° |
| 2026-05-06 23:55 | 45.35083 | 48.53319 | 33960 ft | 443 kts | 205° |
| 2026-05-06 23:56 | 45.29433 | 48.49829 | 33968 ft | 442 kts | 205° |
| 2026-05-06 23:56 | 45.23830 | 48.46384 | 33972 ft | 441 kts | 205° |
| 2026-05-06 23:57 | 45.18196 | 48.42942 | 33979 ft | 440 kts | 205° |
| 2026-05-06 23:57 | 45.12576 | 48.39505 | 33979 ft | 439 kts | 205° |
| 2026-05-06 23:58 | 45.06972 | 48.36086 | 33979 ft | 438 kts | 205° |
| 2026-05-06 23:58 | 45.01370 | 48.32677 | 33982 ft | 437 kts | 205° |
| 2026-05-06 23:59 | 44.95791 | 48.29292 | 33989 ft | 436 kts | 205° |
| 2026-05-06 23:59 | 44.90212 | 48.25909 | 33990 ft | 436 kts | 205° |
| 2026-05-07 00:00 | 44.84646 | 48.22544 | 33989 ft | 435 kts | 205° |
| 2026-05-07 00:00 | 44.80026 | 48.19752 | 33992 ft | 435 kts | 205° |
| 2026-05-07 00:01 | 44.73534 | 48.15829 | 33992 ft | 434 kts | 205° |
| 2026-05-07 00:01 | 44.67981 | 48.12489 | 34000 ft | 434 kts | 205° |
| 2026-05-07 00:02 | 44.62432 | 48.09165 | 34004 ft | 433 kts | 205° |
| 2026-05-07 00:02 | 44.56919 | 48.05874 | 34007 ft | 433 kts | 205° |
| 2026-05-07 00:03 | 44.51393 | 48.02573 | 34011 ft | 432 kts | 205° |
| 2026-05-07 00:03 | 44.45858 | 47.99279 | 34018 ft | 431 kts | 205° |
| 2026-05-07 00:04 | 44.40351 | 47.95997 | 34027 ft | 430 kts | 205° |
| 2026-05-07 00:04 | 44.34846 | 47.92725 | 34018 ft | 429 kts | 205° |
| 2026-05-07 00:05 | 44.29353 | 47.89464 | 34032 ft | 429 kts | 205° |
| 2026-05-07 00:05 | 44.23858 | 47.86218 | 34033 ft | 428 kts | 205° |
| 2026-05-07 00:06 | 44.18372 | 47.82990 | 34032 ft | 427 kts | 205° |
| 2026-05-07 00:06 | 44.12903 | 47.79759 | 34031 ft | 427 kts | 205° |
| 2026-05-07 00:07 | 44.07454 | 47.76554 | 34034 ft | 426 kts | 205° |
| 2026-05-07 00:07 | 44.02001 | 47.73360 | 34033 ft | 425 kts | 205° |
| 2026-05-07 00:08 | 43.96551 | 47.70166 | 34035 ft | 424 kts | 205° |
| 2026-05-07 00:08 | 43.91118 | 47.66992 | 34038 ft | 423 kts | 205° |
| 2026-05-07 00:09 | 43.85708 | 47.63843 | 34036 ft | 423 kts | 205° |
| 2026-05-07 00:09 | 43.80304 | 47.60715 | 34040 ft | 422 kts | 205° |
| 2026-05-07 00:10 | 43.74868 | 47.57561 | 34046 ft | 422 kts | 205° |
| 2026-05-07 00:10 | 43.69442 | 47.54404 | 34043 ft | 422 kts | 205° |
| 2026-05-07 00:11 | 43.66886 | 47.52587 | 34040 ft | 418 kts | 216° |
| 2026-05-07 00:11 | 43.64640 | 47.50044 | 34035 ft | 415 kts | 227° |
| 2026-05-07 00:11 | 43.62867 | 47.46912 | 34033 ft | 414 kts | 239° |
| 2026-05-07 00:11 | 43.61628 | 47.43315 | 34034 ft | 415 kts | 250° |
| 2026-05-07 00:12 | 43.60967 | 47.39432 | 34036 ft | 417 kts | 261° |
| 2026-05-07 00:12 | 43.60649 | 47.35466 | 34034 ft | 418 kts | 262° |
| 2026-05-07 00:12 | 43.59990 | 47.27500 | 34032 ft | 418 kts | 261° |
| 2026-05-07 00:13 | 43.59312 | 47.19534 | 34032 ft | 419 kts | 261° |
| 2026-05-07 00:13 | 43.58632 | 47.11588 | 34034 ft | 419 kts | 261° |
| 2026-05-07 00:14 | 43.57950 | 47.03609 | 34038 ft | 419 kts | 261° |
| 2026-05-07 00:14 | 43.57271 | 46.95634 | 34035 ft | 419 kts | 261° |
| 2026-05-07 00:15 | 43.56582 | 46.87635 | 34035 ft | 420 kts | 261° |
| 2026-05-07 00:15 | 43.55877 | 46.79596 | 34040 ft | 420 kts | 261° |
| 2026-05-07 00:16 | 43.55281 | 46.72929 | 34041 ft | 421 kts | 261° |
| 2026-05-07 00:16 | 43.54570 | 46.64928 | 34045 ft | 422 kts | 261° |
| 2026-05-07 00:17 | 43.53856 | 46.56902 | 34046 ft | 422 kts | 261° |
| 2026-05-07 00:17 | 43.53131 | 46.48867 | 34044 ft | 423 kts | 261° |
| 2026-05-07 00:18 | 43.52397 | 46.40822 | 34053 ft | 423 kts | 261° |
| 2026-05-07 00:18 | 43.51649 | 46.32755 | 34051 ft | 424 kts | 261° |
| 2026-05-07 00:19 | 43.50911 | 46.24700 | 34052 ft | 425 kts | 261° |
| 2026-05-07 00:19 | 43.50173 | 46.16659 | 34059 ft | 425 kts | 261° |
| 2026-05-07 00:20 | 43.49411 | 46.08569 | 34061 ft | 426 kts | 261° |
| 2026-05-07 00:20 | 43.49277 | 46.00380 | 34061 ft | 429 kts | 275° |
| 2026-05-07 00:21 | 43.49980 | 45.92236 | 34067 ft | 430 kts | 274° |
| 2026-05-07 00:21 | 43.50661 | 45.84034 | 34064 ft | 431 kts | 274° |
| 2026-05-07 00:22 | 43.51324 | 45.75854 | 34067 ft | 432 kts | 274° |
| 2026-05-07 00:22 | 43.51999 | 45.67580 | 34071 ft | 433 kts | 274° |
| 2026-05-07 00:23 | 43.52654 | 45.59362 | 34071 ft | 434 kts | 274° |
| 2026-05-07 00:23 | 43.53314 | 45.51098 | 34070 ft | 434 kts | 274° |
| 2026-05-07 00:24 | 43.53972 | 45.42830 | 34070 ft | 435 kts | 274° |
| 2026-05-07 00:24 | 43.54626 | 45.34488 | 34074 ft | 436 kts | 274° |
| 2026-05-07 00:25 | 43.55268 | 45.26167 | 34076 ft | 437 kts | 274° |
| 2026-05-07 00:25 | 43.55910 | 45.17860 | 34079 ft | 437 kts | 274° |
| 2026-05-07 00:26 | 43.56541 | 45.09535 | 34081 ft | 438 kts | 274° |
| 2026-05-07 00:26 | 43.57168 | 45.01154 | 34080 ft | 439 kts | 274° |
| 2026-05-07 00:27 | 43.57791 | 44.92819 | 34077 ft | 439 kts | 274° |
| 2026-05-07 00:27 | 43.58417 | 44.84423 | 34080 ft | 439 kts | 274° |
| 2026-05-07 00:28 | 43.59038 | 44.76048 | 34075 ft | 440 kts | 274° |
| 2026-05-07 00:28 | 43.59651 | 44.67607 | 34082 ft | 441 kts | 274° |
| 2026-05-07 00:29 | 43.60253 | 44.59184 | 34079 ft | 441 kts | 274° |
| 2026-05-07 00:30 | 43.61429 | 44.42341 | 34065 ft | 442 kts | 274° |
| 2026-05-07 00:30 | 43.62016 | 44.33883 | 34057 ft | 442 kts | 274° |
| 2026-05-07 00:31 | 43.62597 | 44.25453 | 34052 ft | 443 kts | 275° |
| 2026-05-07 00:31 | 43.63172 | 44.16960 | 34055 ft | 443 kts | 275° |
| 2026-05-07 00:32 | 43.63669 | 44.08470 | 34057 ft | 444 kts | 272° |
| 2026-05-07 00:32 | 43.63916 | 43.99944 | 34055 ft | 444 kts | 271° |
| 2026-05-07 00:33 | 43.64091 | 43.91462 | 34057 ft | 444 kts | 271° |
| 2026-05-07 00:33 | 43.64301 | 43.82936 | 34073 ft | 444 kts | 271° |
| 2026-05-07 00:34 | 43.64536 | 43.74416 | 34070 ft | 444 kts | 271° |
| 2026-05-07 00:34 | 43.64761 | 43.65881 | 34076 ft | 445 kts | 271° |
| 2026-05-07 00:35 | 43.64983 | 43.57347 | 34071 ft | 445 kts | 271° |
| 2026-05-07 00:35 | 43.65207 | 43.48808 | 34070 ft | 445 kts | 271° |
| 2026-05-07 00:36 | 43.65415 | 43.40265 | 34077 ft | 445 kts | 271° |
| 2026-05-07 00:36 | 43.65615 | 43.31719 | 34090 ft | 446 kts | 271° |
| 2026-05-07 00:37 | 43.65808 | 43.23156 | 34090 ft | 446 kts | 271° |
| 2026-05-07 00:37 | 43.65997 | 43.14588 | 34111 ft | 446 kts | 271° |
| 2026-05-07 00:38 | 43.66183 | 43.06000 | 34121 ft | 447 kts | 271° |
| 2026-05-07 00:38 | 43.66353 | 42.97392 | 34131 ft | 447 kts | 271° |
| 2026-05-07 00:39 | 43.66519 | 42.88866 | 34122 ft | 448 kts | 271° |
| 2026-05-07 00:39 | 43.66690 | 42.80242 | 34140 ft | 449 kts | 271° |
| 2026-05-07 00:40 | 43.66850 | 42.71612 | 34135 ft | 449 kts | 271° |
| 2026-05-07 00:40 | 43.67004 | 42.62989 | 34145 ft | 449 kts | 271° |
| 2026-05-07 00:41 | 43.67150 | 42.54348 | 34150 ft | 450 kts | 271° |
| 2026-05-07 00:41 | 43.67289 | 42.45711 | 34155 ft | 450 kts | 271° |
| 2026-05-07 00:42 | 43.67428 | 42.37069 | 34157 ft | 450 kts | 271° |
| 2026-05-07 00:42 | 43.67550 | 42.28427 | 34162 ft | 450 kts | 271° |
| 2026-05-07 00:43 | 43.67661 | 42.19773 | 34170 ft | 451 kts | 271° |
| 2026-05-07 00:43 | 43.67771 | 42.11107 | 34171 ft | 451 kts | 271° |
| 2026-05-07 00:44 | 43.67879 | 42.02432 | 34184 ft | 452 kts | 271° |
| 2026-05-07 00:44 | 43.67982 | 41.93738 | 34186 ft | 453 kts | 271° |
| 2026-05-07 00:45 | 43.68083 | 41.85033 | 34181 ft | 453 kts | 271° |
| 2026-05-07 00:45 | 43.68169 | 41.76356 | 34178 ft | 452 kts | 271° |
| 2026-05-07 00:46 | 43.68246 | 41.67653 | 34179 ft | 453 kts | 271° |
| 2026-05-07 00:46 | 43.68319 | 41.58991 | 34179 ft | 453 kts | 271° |
| 2026-05-07 00:47 | 43.68383 | 41.50269 | 34181 ft | 453 kts | 271° |
| 2026-05-07 00:47 | 43.68439 | 41.41548 | 34179 ft | 454 kts | 271° |
| 2026-05-07 00:48 | 43.68496 | 41.32827 | 34173 ft | 453 kts | 270° |
| 2026-05-07 00:48 | 43.68545 | 41.24162 | 34172 ft | 454 kts | 270° |
| 2026-05-07 00:49 | 43.68588 | 41.15435 | 34166 ft | 454 kts | 271° |
| 2026-05-07 00:49 | 43.68628 | 41.06687 | 34158 ft | 455 kts | 271° |
| 2026-05-07 00:50 | 43.68656 | 40.97993 | 34158 ft | 455 kts | 270° |
| 2026-05-07 00:50 | 43.68669 | 40.89231 | 34152 ft | 455 kts | 270° |
| 2026-05-07 00:51 | 43.68701 | 40.80520 | 34146 ft | 455 kts | 271° |
| 2026-05-07 00:51 | 43.68752 | 40.71749 | 34145 ft | 456 kts | 271° |
| 2026-05-07 00:52 | 43.68794 | 40.62967 | 34138 ft | 456 kts | 271° |
| 2026-05-07 00:52 | 43.68818 | 40.54249 | 34141 ft | 456 kts | 271° |
| 2026-05-07 00:53 | 43.68834 | 40.45484 | 34144 ft | 456 kts | 271° |
| 2026-05-07 00:53 | 43.68844 | 40.36700 | 34147 ft | 456 kts | 271° |
| 2026-05-07 00:54 | 43.68846 | 40.27939 | 34146 ft | 456 kts | 270° |
| 2026-05-07 00:54 | 43.68841 | 40.19165 | 34156 ft | 456 kts | 271° |
| 2026-05-07 00:55 | 43.68302 | 40.10451 | 34155 ft | 457 kts | 256° |
| 2026-05-07 00:55 | 43.66032 | 40.02248 | 34169 ft | 457 kts | 245° |
| 2026-05-07 00:56 | 43.65551 | 40.00786 | 34173 ft | 457 kts | 246° |
| 2026-05-07 00:57 | 43.64593 | 39.97862 | 34173 ft | 458 kts | 246° |
| 2026-05-07 00:59 | 43.63666 | 39.95009 | 34140 ft | 458 kts | 246° |
| 2026-05-07 01:00 | 43.61484 | 39.88291 | 34151 ft | 458 kts | 246° |
| 2026-05-07 01:00 | 43.58881 | 39.80338 | 34163 ft | 458 kts | 246° |
| 2026-05-07 01:01 | 43.56231 | 39.72283 | 34163 ft | 458 kts | 246° |
| 2026-05-07 01:01 | 43.53589 | 39.64290 | 34168 ft | 458 kts | 245° |
| 2026-05-07 01:02 | 43.50935 | 39.56320 | 34178 ft | 458 kts | 245° |
| 2026-05-07 01:02 | 43.48286 | 39.48401 | 34167 ft | 458 kts | 245° |
| 2026-05-07 01:03 | 43.45622 | 39.40432 | 34181 ft | 458 kts | 245° |
| 2026-05-07 01:03 | 43.42947 | 39.32459 | 34178 ft | 458 kts | 245° |
| 2026-05-07 01:04 | 43.40264 | 39.24495 | 34181 ft | 458 kts | 245° |
| 2026-05-07 01:04 | 43.37584 | 39.16545 | 34176 ft | 458 kts | 245° |
| 2026-05-07 01:05 | 43.34920 | 39.08657 | 34179 ft | 458 kts | 246° |
| 2026-05-07 01:05 | 43.32490 | 39.00573 | 34183 ft | 457 kts | 250° |
| 2026-05-07 01:06 | 43.30292 | 38.92374 | 34188 ft | 457 kts | 250° |
| 2026-05-07 01:06 | 43.28079 | 38.84183 | 34189 ft | 457 kts | 250° |
| 2026-05-07 01:07 | 43.25787 | 38.76048 | 34182 ft | 457 kts | 249° |
| 2026-05-07 01:07 | 43.23436 | 38.67943 | 34182 ft | 457 kts | 249° |
| 2026-05-07 01:08 | 43.21082 | 38.59854 | 34180 ft | 457 kts | 249° |
| 2026-05-07 01:08 | 43.18735 | 38.51770 | 34185 ft | 457 kts | 249° |
| 2026-05-07 01:09 | 43.16407 | 38.43733 | 34184 ft | 457 kts | 249° |
| 2026-05-07 01:09 | 43.14055 | 38.35658 | 34177 ft | 456 kts | 249° |
| 2026-05-07 01:10 | 43.11702 | 38.27590 | 34182 ft | 456 kts | 249° |
| 2026-05-07 01:10 | 43.09344 | 38.19536 | 34181 ft | 456 kts | 249° |
| 2026-05-07 01:11 | 43.06976 | 38.11490 | 34187 ft | 456 kts | 249° |
| 2026-05-07 01:11 | 43.04632 | 38.03429 | 34178 ft | 456 kts | 249° |
| 2026-05-07 01:12 | 43.02293 | 37.95375 | 34174 ft | 456 kts | 249° |
| 2026-05-07 01:12 | 42.99919 | 37.87334 | 34179 ft | 456 kts | 249° |
| 2026-05-07 01:13 | 42.97537 | 37.79311 | 34178 ft | 456 kts | 249° |
| 2026-05-07 01:13 | 42.95167 | 37.71346 | 34174 ft | 456 kts | 249° |
| 2026-05-07 01:14 | 42.92762 | 37.63339 | 34174 ft | 456 kts | 249° |
| 2026-05-07 01:14 | 42.90357 | 37.55332 | 34178 ft | 456 kts | 249° |
| 2026-05-07 01:15 | 42.87938 | 37.47327 | 34173 ft | 456 kts | 249° |
| 2026-05-07 01:15 | 42.85514 | 37.39333 | 34171 ft | 456 kts | 249° |
| 2026-05-07 01:16 | 42.83100 | 37.31343 | 34169 ft | 456 kts | 249° |
| 2026-05-07 01:16 | 42.80666 | 37.23375 | 34169 ft | 456 kts | 249° |
| 2026-05-07 01:17 | 42.78228 | 37.15400 | 34168 ft | 456 kts | 249° |
| 2026-05-07 01:17 | 42.75802 | 37.07437 | 34166 ft | 456 kts | 249° |
| 2026-05-07 01:18 | 42.73379 | 36.99527 | 34171 ft | 456 kts | 249° |
| 2026-05-07 01:18 | 42.70920 | 36.91572 | 34167 ft | 456 kts | 248° |
| 2026-05-07 01:19 | 42.68242 | 36.83756 | 34169 ft | 456 kts | 245° |
| 2026-05-07 01:19 | 42.65367 | 36.76076 | 34165 ft | 456 kts | 244° |
| 2026-05-07 01:20 | 42.62491 | 36.68395 | 34160 ft | 456 kts | 245° |
| 2026-05-07 01:20 | 42.59667 | 36.60671 | 34161 ft | 456 kts | 245° |
| 2026-05-07 01:21 | 42.56887 | 36.53002 | 34158 ft | 456 kts | 245° |
| 2026-05-07 01:21 | 42.54066 | 36.45274 | 34155 ft | 457 kts | 245° |
| 2026-05-07 01:22 | 42.51242 | 36.37589 | 34154 ft | 457 kts | 245° |
| 2026-05-07 01:22 | 42.48392 | 36.29867 | 34145 ft | 457 kts | 245° |
| 2026-05-07 01:23 | 42.45552 | 36.22198 | 34147 ft | 457 kts | 245° |
| 2026-05-07 01:23 | 42.42692 | 36.14496 | 34145 ft | 458 kts | 245° |
| 2026-05-07 01:24 | 42.39817 | 36.06766 | 34149 ft | 458 kts | 245° |
| 2026-05-07 01:24 | 42.36950 | 35.99079 | 34149 ft | 459 kts | 245° |
| 2026-05-07 01:25 | 42.34076 | 35.91383 | 34145 ft | 459 kts | 245° |
| 2026-05-07 01:25 | 42.31180 | 35.83677 | 34151 ft | 459 kts | 245° |
| 2026-05-07 01:26 | 42.28294 | 35.76021 | 34147 ft | 459 kts | 245° |
| 2026-05-07 01:26 | 42.25384 | 35.68305 | 34145 ft | 459 kts | 245° |
| 2026-05-07 01:27 | 42.22490 | 35.60642 | 34140 ft | 459 kts | 245° |
| 2026-05-07 01:27 | 42.19592 | 35.52982 | 34138 ft | 460 kts | 245° |
| 2026-05-07 01:28 | 42.16664 | 35.45290 | 34135 ft | 459 kts | 245° |
| 2026-05-07 01:28 | 42.13743 | 35.37635 | 34130 ft | 459 kts | 245° |
| 2026-05-07 01:29 | 42.10842 | 35.29982 | 34130 ft | 459 kts | 245° |
| 2026-05-07 01:29 | 42.07949 | 35.22359 | 34126 ft | 460 kts | 245° |
| 2026-05-07 01:30 | 42.05029 | 35.14712 | 34123 ft | 460 kts | 245° |
| 2026-05-07 01:30 | 42.02598 | 35.06793 | 34119 ft | 454 kts | 259° |
| 2026-05-07 01:31 | 42.01846 | 34.98405 | 34122 ft | 450 kts | 269° |
| 2026-05-07 01:31 | 42.01435 | 34.90045 | 34124 ft | 450 kts | 269° |
| 2026-05-07 01:32 | 42.01001 | 34.81668 | 34129 ft | 450 kts | 269° |
| 2026-05-07 01:32 | 42.00588 | 34.73248 | 34128 ft | 450 kts | 269° |
| 2026-05-07 01:33 | 42.00191 | 34.64883 | 34129 ft | 450 kts | 269° |
| 2026-05-07 01:33 | 41.99783 | 34.56485 | 34130 ft | 449 kts | 269° |
| 2026-05-07 01:34 | 41.99356 | 34.48114 | 34133 ft | 449 kts | 269° |
| 2026-05-07 01:34 | 41.98929 | 34.39781 | 34133 ft | 448 kts | 269° |
| 2026-05-07 01:35 | 41.98501 | 34.31440 | 34131 ft | 447 kts | 269° |
| 2026-05-07 01:35 | 41.98057 | 34.23094 | 34129 ft | 447 kts | 269° |
| 2026-05-07 01:36 | 41.97613 | 34.14746 | 34127 ft | 447 kts | 269° |
| 2026-05-07 01:36 | 41.97158 | 34.06416 | 34132 ft | 448 kts | 269° |
| 2026-05-07 01:37 | 41.96695 | 33.98047 | 34136 ft | 447 kts | 270° |
| 2026-05-07 01:37 | 41.96236 | 33.89769 | 34139 ft | 447 kts | 270° |
| 2026-05-07 01:38 | 41.95769 | 33.81440 | 34145 ft | 447 kts | 270° |
| 2026-05-07 01:38 | 41.95349 | 33.73128 | 34142 ft | 443 kts | 275° |
| 2026-05-07 01:39 | 41.96218 | 33.65068 | 34142 ft | 432 kts | 290° |
| 2026-05-07 01:39 | 41.97747 | 33.57248 | 34138 ft | 433 kts | 289° |
| 2026-05-07 01:40 | 41.99252 | 33.49415 | 34132 ft | 433 kts | 289° |
| 2026-05-07 01:40 | 42.00748 | 33.41579 | 34134 ft | 432 kts | 289° |
| 2026-05-07 01:41 | 42.02238 | 33.33752 | 34135 ft | 432 kts | 289° |
| 2026-05-07 01:41 | 42.03714 | 33.25983 | 34127 ft | 431 kts | 290° |
| 2026-05-07 01:42 | 42.05196 | 33.18169 | 34125 ft | 431 kts | 289° |
| 2026-05-07 01:42 | 42.06495 | 33.10300 | 34111 ft | 436 kts | 281° |
| 2026-05-07 01:43 | 42.06079 | 33.02069 | 34105 ft | 449 kts | 261° |
| 2026-05-07 01:43 | 42.04517 | 32.93922 | 34108 ft | 450 kts | 261° |
| 2026-05-07 01:44 | 42.02965 | 32.85783 | 34106 ft | 449 kts | 261° |
| 2026-05-07 01:44 | 42.01412 | 32.77650 | 34108 ft | 449 kts | 261° |
| 2026-05-07 01:45 | 41.99855 | 32.69521 | 34115 ft | 448 kts | 261° |
| 2026-05-07 01:45 | 41.98304 | 32.61471 | 34114 ft | 447 kts | 261° |
| 2026-05-07 01:46 | 41.96744 | 32.53389 | 34110 ft | 447 kts | 261° |
| 2026-05-07 01:46 | 41.95168 | 32.45318 | 34112 ft | 446 kts | 260° |
| 2026-05-07 01:47 | 41.93588 | 32.37262 | 34118 ft | 446 kts | 260° |
| 2026-05-07 01:47 | 41.92007 | 32.29225 | 34116 ft | 445 kts | 260° |
| 2026-05-07 01:48 | 41.90426 | 32.21202 | 34115 ft | 444 kts | 260° |
| 2026-05-07 01:48 | 41.89082 | 32.14551 | 34115 ft | 444 kts | 259° |
| 2026-05-07 01:49 | 41.87439 | 32.06560 | 34117 ft | 443 kts | 259° |
| 2026-05-07 01:49 | 41.85797 | 31.98600 | 34122 ft | 443 kts | 259° |
| 2026-05-07 01:50 | 41.84152 | 31.90638 | 34116 ft | 443 kts | 259° |
| 2026-05-07 01:50 | 41.82506 | 31.82698 | 34103 ft | 442 kts | 259° |
| 2026-05-07 01:51 | 41.80858 | 31.74762 | 34109 ft | 441 kts | 259° |
| 2026-05-07 01:51 | 41.79205 | 31.66842 | 34111 ft | 441 kts | 259° |
| 2026-05-07 01:52 | 41.77539 | 31.58931 | 34104 ft | 441 kts | 259° |
| 2026-05-07 01:52 | 41.75874 | 31.51082 | 34107 ft | 441 kts | 259° |
| 2026-05-07 01:53 | 41.74204 | 31.43198 | 34108 ft | 440 kts | 259° |
| 2026-05-07 01:53 | 41.72532 | 31.35320 | 34109 ft | 440 kts | 259° |
| 2026-05-07 01:54 | 41.70859 | 31.27456 | 34104 ft | 438 kts | 259° |
| 2026-05-07 01:54 | 41.69179 | 31.19609 | 34104 ft | 438 kts | 258° |
| 2026-05-07 01:55 | 41.67504 | 31.11768 | 34105 ft | 438 kts | 259° |
| 2026-05-07 01:55 | 41.66716 | 31.07824 | 33877 ft | 438 kts | 260° |
| 2026-05-07 01:55 | 41.65974 | 31.03889 | 33490 ft | 435 kts | 261° |
| 2026-05-07 01:55 | 41.65265 | 31.00021 | 32931 ft | 431 kts | 261° |
| 2026-05-07 01:56 | 41.64561 | 30.96134 | 32370 ft | 428 kts | 261° |
| 2026-05-07 01:56 | 41.63855 | 30.92281 | 31818 ft | 426 kts | 260° |
| 2026-05-07 01:56 | 41.63139 | 30.88443 | 31231 ft | 425 kts | 260° |
| 2026-05-07 01:56 | 41.62416 | 30.84621 | 30672 ft | 423 kts | 259° |
| 2026-05-07 01:57 | 41.61689 | 30.80818 | 30097 ft | 422 kts | 259° |
| 2026-05-07 01:57 | 41.60961 | 30.77026 | 29511 ft | 418 kts | 259° |
| 2026-05-07 01:57 | 41.60242 | 30.73322 | 29338 ft | 405 kts | 259° |
| 2026-05-07 01:57 | 41.59545 | 30.69734 | 29197 ft | 393 kts | 259° |
| 2026-05-07 01:58 | 41.58923 | 30.66246 | 28992 ft | 379 kts | 266° |
| 2026-05-07 01:58 | 41.58915 | 30.62815 | 28711 ft | 363 kts | 283° |
| 2026-05-07 01:58 | 41.59604 | 30.59671 | 28201 ft | 355 kts | 300° |
| 2026-05-07 01:58 | 41.60970 | 30.56934 | 28102 ft | 359 kts | 315° |
| 2026-05-07 01:59 | 41.62889 | 30.54751 | 28117 ft | 369 kts | 329° |
| 2026-05-07 01:59 | 41.65266 | 30.53348 | 28121 ft | 380 kts | 345° |
| 2026-05-07 01:59 | 41.67927 | 30.52948 | 28123 ft | 392 kts | 2° |
| 2026-05-07 01:59 | 41.70614 | 30.53705 | 28119 ft | 400 kts | 20° |
| 2026-05-07 02:00 | 41.73022 | 30.55614 | 28128 ft | 408 kts | 38° |
| 2026-05-07 02:00 | 41.74880 | 30.58510 | 28118 ft | 416 kts | 56° |
| 2026-05-07 02:00 | 41.75966 | 30.62125 | 28118 ft | 424 kts | 74° |
| 2026-05-07 02:00 | 41.76248 | 30.66079 | 28111 ft | 431 kts | 91° |
| 2026-05-07 02:01 | 41.75630 | 30.70025 | 28115 ft | 438 kts | 110° |
| 2026-05-07 02:01 | 41.74026 | 30.73499 | 28124 ft | 443 kts | 132° |
| 2026-05-07 02:01 | 41.71574 | 30.75989 | 28116 ft | 446 kts | 154° |
| 2026-05-07 02:01 | 41.68615 | 30.77150 | 28117 ft | 445 kts | 176° |
| 2026-05-07 02:02 | 41.65559 | 30.76839 | 28118 ft | 441 kts | 198° |
| 2026-05-07 02:02 | 41.62799 | 30.75161 | 28123 ft | 435 kts | 218° |
| 2026-05-07 02:02 | 41.60661 | 30.72385 | 28121 ft | 427 kts | 239° |
| 2026-05-07 02:02 | 41.59356 | 30.68887 | 28112 ft | 419 kts | 256° |
| 2026-05-07 02:03 | 41.58723 | 30.65114 | 27792 ft | 414 kts | 267° |
| 2026-05-07 02:03 | 41.58627 | 30.61303 | 27320 ft | 407 kts | 276° |
| 2026-05-07 02:03 | 41.58873 | 30.57566 | 26843 ft | 403 kts | 280° |
| 2026-05-07 02:03 | 41.59250 | 30.53873 | 26367 ft | 400 kts | 281° |
| 2026-05-07 02:04 | 41.59611 | 30.50249 | 25914 ft | 397 kts | 280° |
| 2026-05-07 02:04 | 41.59901 | 30.46582 | 25436 ft | 396 kts | 278° |
| 2026-05-07 02:04 | 41.60107 | 30.42877 | 24973 ft | 394 kts | 276° |
| 2026-05-07 02:04 | 41.60245 | 30.39276 | 24520 ft | 392 kts | 275° |
| 2026-05-07 02:05 | 41.60350 | 30.35649 | 24058 ft | 390 kts | 275° |
| 2026-05-07 02:05 | 41.60601 | 30.32064 | 23585 ft | 385 kts | 283° |
| 2026-05-07 02:05 | 41.61379 | 30.28628 | 23087 ft | 379 kts | 295° |
| 2026-05-07 02:05 | 41.62621 | 30.25600 | 22632 ft | 375 kts | 307° |
| 2026-05-07 02:06 | 41.64289 | 30.22954 | 22190 ft | 371 kts | 316° |
| 2026-05-07 02:06 | 41.66089 | 30.20500 | 21740 ft | 369 kts | 315° |
| 2026-05-07 02:06 | 41.67876 | 30.18045 | 21285 ft | 367 kts | 315° |
| 2026-05-07 02:06 | 41.69644 | 30.15600 | 20825 ft | 364 kts | 315° |
| 2026-05-07 02:07 | 41.71397 | 30.13164 | 20338 ft | 362 kts | 315° |
| 2026-05-07 02:07 | 41.74104 | 30.07604 | 19381 ft | 363 kts | 286° |
| 2026-05-07 02:07 | 41.74295 | 30.04232 | 18905 ft | 367 kts | 266° |
| 2026-05-07 02:08 | 41.73582 | 30.00948 | 18412 ft | 371 kts | 245° |
| 2026-05-07 02:08 | 41.72092 | 29.98113 | 17879 ft | 374 kts | 233° |
| 2026-05-07 02:08 | 41.70439 | 29.95438 | 17378 ft | 372 kts | 233° |
| 2026-05-07 02:08 | 41.68795 | 29.92783 | 16891 ft | 370 kts | 233° |
| 2026-05-07 02:09 | 41.67161 | 29.90148 | 16528 ft | 364 kts | 233° |
| 2026-05-07 02:09 | 41.65570 | 29.87580 | 16397 ft | 352 kts | 233° |
| 2026-05-07 02:09 | 41.64036 | 29.85102 | 16255 ft | 340 kts | 233° |
| 2026-05-07 02:09 | 41.62757 | 29.82516 | 16049 ft | 328 kts | 247° |
| 2026-05-07 02:10 | 41.62014 | 29.79739 | 15869 ft | 319 kts | 261° |
| 2026-05-07 02:10 | 41.61749 | 29.76822 | 15719 ft | 315 kts | 271° |
| 2026-05-07 02:10 | 41.61652 | 29.73904 | 15490 ft | 314 kts | 270° |
| 2026-05-07 02:10 | 41.61551 | 29.70991 | 15254 ft | 313 kts | 270° |
| 2026-05-07 02:11 | 41.61446 | 29.68088 | 15017 ft | 312 kts | 270° |
| 2026-05-07 02:11 | 41.61343 | 29.65203 | 14784 ft | 311 kts | 270° |
| 2026-05-07 02:11 | 41.61243 | 29.62323 | 14548 ft | 310 kts | 270° |
| 2026-05-07 02:11 | 41.61000 | 29.59464 | 14311 ft | 312 kts | 259° |
| 2026-05-07 02:12 | 41.60206 | 29.56763 | 14076 ft | 315 kts | 243° |
| 2026-05-07 02:12 | 41.58880 | 29.54431 | 13747 ft | 317 kts | 226° |
| 2026-05-07 02:12 | 41.57209 | 29.52499 | 13442 ft | 317 kts | 222° |
| 2026-05-07 02:12 | 41.55526 | 29.50602 | 13129 ft | 316 kts | 223° |
| 2026-05-07 02:13 | 41.53854 | 29.48708 | 12798 ft | 315 kts | 223° |
| 2026-05-07 02:13 | 41.52189 | 29.46817 | 12444 ft | 312 kts | 223° |
| 2026-05-07 02:13 | 41.50543 | 29.44945 | 12147 ft | 310 kts | 223° |
| 2026-05-07 02:13 | 41.48909 | 29.43086 | 11857 ft | 308 kts | 223° |
| 2026-05-07 02:14 | 41.47283 | 29.41242 | 11570 ft | 306 kts | 223° |
| 2026-05-07 02:14 | 41.45661 | 29.39404 | 11270 ft | 304 kts | 223° |
| 2026-05-07 02:14 | 41.44052 | 29.37587 | 10983 ft | 303 kts | 222° |
| 2026-05-07 02:14 | 41.42427 | 29.35870 | 10703 ft | 302 kts | 219° |
| 2026-05-07 02:15 | 41.40743 | 29.34209 | 10420 ft | 301 kts | 218° |
| 2026-05-07 02:15 | 41.39056 | 29.32596 | 10203 ft | 294 kts | 218° |
| 2026-05-07 02:15 | 41.37414 | 29.31059 | 10078 ft | 284 kts | 214° |
| 2026-05-07 02:15 | 41.35634 | 29.29996 | 10009 ft | 279 kts | 197° |
| 2026-05-07 02:16 | 41.33709 | 29.29608 | 10019 ft | 282 kts | 181° |
| 2026-05-07 02:16 | 41.31751 | 29.29622 | 10014 ft | 282 kts | 181° |
| 2026-05-07 02:16 | 41.29789 | 29.29627 | 10016 ft | 282 kts | 181° |
| 2026-05-07 02:16 | 41.27829 | 29.29626 | 10013 ft | 282 kts | 181° |
| 2026-05-07 02:17 | 41.25869 | 29.29621 | 10010 ft | 282 kts | 180° |
| 2026-05-07 02:17 | 41.23928 | 29.29964 | 10013 ft | 282 kts | 163° |
| 2026-05-07 02:17 | 41.22140 | 29.31027 | 10012 ft | 282 kts | 146° |
| 2026-05-07 02:17 | 41.20652 | 29.32710 | 10015 ft | 281 kts | 130° |
| 2026-05-07 02:18 | 41.19347 | 29.34655 | 10013 ft | 282 kts | 130° |
| 2026-05-07 02:18 | 41.18036 | 29.36581 | 10012 ft | 281 kts | 131° |
| 2026-05-07 02:18 | 41.16718 | 29.38506 | 10014 ft | 282 kts | 132° |
| 2026-05-07 02:18 | 41.15249 | 29.40173 | 10010 ft | 282 kts | 146° |
| 2026-05-07 02:19 | 41.13570 | 29.41594 | 10014 ft | 283 kts | 147° |
| 2026-05-07 02:19 | 41.11932 | 29.42983 | 10014 ft | 283 kts | 147° |
| 2026-05-07 02:19 | 41.10272 | 29.44395 | 10014 ft | 283 kts | 147° |
| 2026-05-07 02:19 | 41.08618 | 29.45806 | 10002 ft | 283 kts | 147° |
| 2026-05-07 02:20 | 41.06860 | 29.46980 | 10016 ft | 283 kts | 161° |
| 2026-05-07 02:20 | 41.04986 | 29.47778 | 10004 ft | 283 kts | 163° |
| 2026-05-07 02:20 | 41.03108 | 29.48572 | 10001 ft | 283 kts | 162° |
| 2026-05-07 02:20 | 41.01229 | 29.49366 | 10003 ft | 283 kts | 162° |
| 2026-05-07 02:21 | 40.99352 | 29.50161 | 10012 ft | 283 kts | 163° |
| 2026-05-07 02:21 | 40.97433 | 29.50720 | 10014 ft | 281 kts | 176° |
| 2026-05-07 02:21 | 40.95481 | 29.50854 | 10011 ft | 282 kts | 179° |
| 2026-05-07 02:21 | 40.93520 | 29.50975 | 10011 ft | 282 kts | 179° |
| 2026-05-07 02:22 | 40.91603 | 29.50659 | 10010 ft | 278 kts | 202° |
| 2026-05-07 02:22 | 40.89973 | 29.49356 | 10013 ft | 272 kts | 228° |
| 2026-05-07 02:22 | 40.88906 | 29.47377 | 9822 ft | 266 kts | 251° |
| 2026-05-07 02:22 | 40.88538 | 29.45045 | 9602 ft | 257 kts | 274° |
| 2026-05-07 02:23 | 40.88678 | 29.42698 | 9396 ft | 256 kts | 278° |
| 2026-05-07 02:23 | 40.88828 | 29.40357 | 9195 ft | 255 kts | 277° |
| 2026-05-07 02:23 | 40.88965 | 29.38039 | 8990 ft | 254 kts | 277° |
| 2026-05-07 02:23 | 40.89104 | 29.35701 | 8788 ft | 252 kts | 277° |
| 2026-05-07 02:24 | 40.89245 | 29.33394 | 8592 ft | 251 kts | 277° |
| 2026-05-07 02:24 | 40.89384 | 29.31128 | 8397 ft | 250 kts | 277° |
| 2026-05-07 02:24 | 40.89524 | 29.28846 | 8217 ft | 249 kts | 277° |
| 2026-05-07 02:24 | 40.89660 | 29.26574 | 8039 ft | 247 kts | 277° |
| 2026-05-07 02:25 | 40.89794 | 29.24307 | 7858 ft | 246 kts | 277° |
| 2026-05-07 02:25 | 40.89926 | 29.22061 | 7680 ft | 244 kts | 277° |
| 2026-05-07 02:25 | 40.90060 | 29.19822 | 7504 ft | 244 kts | 277° |
| 2026-05-07 02:25 | 40.90192 | 29.17592 | 7329 ft | 243 kts | 277° |
| 2026-05-07 02:26 | 40.90324 | 29.15372 | 7151 ft | 242 kts | 277° |
| 2026-05-07 02:26 | 40.90452 | 29.13164 | 6979 ft | 241 kts | 277° |
| 2026-05-07 02:26 | 40.90582 | 29.10956 | 6799 ft | 240 kts | 277° |
| 2026-05-07 02:26 | 40.90711 | 29.08761 | 6632 ft | 239 kts | 277° |
| 2026-05-07 02:27 | 40.90837 | 29.06600 | 6459 ft | 238 kts | 277° |
| 2026-05-07 02:27 | 40.90963 | 29.04421 | 6276 ft | 237 kts | 277° |
| 2026-05-07 02:27 | 40.91085 | 29.02265 | 6096 ft | 231 kts | 277° |
| 2026-05-07 02:27 | 40.91315 | 29.00474 | 5931 ft | 223 kts | 289° |
| 2026-05-07 02:28 | 40.91879 | 28.98570 | 5730 ft | 222 kts | 293° |
| 2026-05-07 02:28 | 40.92462 | 28.96677 | 5535 ft | 222 kts | 293° |
| 2026-05-07 02:28 | 40.93040 | 28.94789 | 5334 ft | 221 kts | 293° |
| 2026-05-07 02:28 | 40.93618 | 28.92906 | 5129 ft | 221 kts | 293° |
| 2026-05-07 02:29 | 40.94193 | 28.91028 | 4926 ft | 220 kts | 293° |
| 2026-05-07 02:29 | 40.94765 | 28.89147 | 4714 ft | 220 kts | 292° |
| 2026-05-07 02:29 | 40.95336 | 28.87265 | 4507 ft | 221 kts | 292° |
| 2026-05-07 02:29 | 40.95908 | 28.85380 | 4300 ft | 221 kts | 292° |
| 2026-05-07 02:30 | 40.96483 | 28.83492 | 4100 ft | 221 kts | 292° |
| 2026-05-07 02:30 | 40.97055 | 28.81601 | 3884 ft | 221 kts | 291° |
| 2026-05-07 02:30 | 40.97617 | 28.79732 | 3685 ft | 222 kts | 291° |
| 2026-05-07 02:30 | 40.98189 | 28.77829 | 3488 ft | 223 kts | 291° |
| 2026-05-07 02:31 | 40.98763 | 28.75928 | 3275 ft | 222 kts | 291° |
| 2026-05-07 02:31 | 40.99335 | 28.74035 | 3096 ft | 219 kts | 291° |
| 2026-05-07 02:31 | 41.00110 | 28.72386 | 3000 ft | 207 kts | 315° |
| 2026-05-07 02:31 | 41.01320 | 28.71419 | 3005 ft | 205 kts | 340° |
| 2026-05-07 02:32 | 41.02734 | 28.71202 | 3018 ft | 205 kts | 358° |
| 2026-05-07 02:32 | 41.04162 | 28.71182 | 3001 ft | 205 kts | 357° |
| 2026-05-07 02:32 | 41.05587 | 28.71159 | 3019 ft | 204 kts | 358° |
| 2026-05-07 02:32 | 41.07013 | 28.71128 | 3009 ft | 205 kts | 357° |
| 2026-05-07 02:33 | 41.08441 | 28.71101 | 2997 ft | 205 kts | 358° |
| 2026-05-07 02:33 | 41.09855 | 28.71074 | 3022 ft | 196 kts | 356° |
| 2026-05-07 02:33 | 41.11140 | 28.71047 | 3016 ft | 175 kts | 356° |
| 2026-05-07 02:33 | 41.12316 | 28.71023 | 3010 ft | 165 kts | 356° |
| 2026-05-07 02:34 | 41.13447 | 28.71000 | 2888 ft | 161 kts | 356° |
| 2026-05-07 02:34 | 41.14564 | 28.70977 | 2707 ft | 160 kts | 357° |
| 2026-05-07 02:34 | 41.15676 | 28.70956 | 2506 ft | 160 kts | 357° |
| 2026-05-07 02:34 | 41.16743 | 28.70934 | 2292 ft | 151 kts | 358° |
| 2026-05-07 02:35 | 41.17777 | 28.70913 | 2090 ft | 147 kts | 358° |
| 2026-05-07 02:35 | 41.18801 | 28.70894 | 1899 ft | 146 kts | 359° |
| 2026-05-07 02:35 | 41.19812 | 28.70874 | 1706 ft | 145 kts | 359° |
| 2026-05-07 02:35 | 41.20815 | 28.70854 | 1506 ft | 144 kts | 358° |
| 2026-05-07 02:36 | 41.21818 | 28.70834 | 1311 ft | 143 kts | 359° |
| 2026-05-07 02:36 | 41.22810 | 28.70813 | 1104 ft | 142 kts | 359° |
| 2026-05-07 02:36 | 41.23797 | 28.70797 | 932 ft | 141 kts | 360° |
| 2026-05-07 02:36 | 41.24776 | 28.70778 | 722 ft | 141 kts | 360° |
| 2026-05-07 02:37 | 41.25755 | 28.70756 | 532 ft | 141 kts | 0° |
| 2026-05-07 02:37 | 41.26732 | 28.70738 | 349 ft | 139 kts | 0° |
| 2026-05-07 02:37 | 41.27605 | 28.70722 | 333 ft | 102 kts | 359° |
| 2026-05-07 02:37 | 41.28130 | 28.70711 | 331 ft | 51 kts | 359° |
| 2026-05-07 02:38 | 41.28324 | 28.70772 | 332 ft | 20 kts | 28° |
| 2026-05-07 02:38 | 41.28403 | 28.70829 | 332 ft | 10 kts | 29° |
| 2026-05-07 02:38 | 41.28430 | 28.70875 | 333 ft | 4 kts | 66° |
| 2026-05-07 02:38 | 41.28444 | 28.70910 | 331 ft | 5 kts | 57° |
| 2026-05-07 02:39 | 41.28471 | 28.70943 | 330 ft | 6 kts | 37° |
| 2026-05-07 02:39 | 41.28500 | 28.70992 | 332 ft | 8 kts | 70° |
| 2026-05-07 02:39 | 41.28504 | 28.71059 | 333 ft | 6 kts | 88° |
| 2026-05-07 02:39 | 41.28504 | 28.71076 | 332 ft | 0 kts | 88° |
| 2026-05-07 02:40 | 41.28504 | 28.71080 | 331 ft | 0 kts | 88° |
| 2026-05-07 02:44 | 41.28504 | 28.71081 | 331 ft | 1 kts | 88° |
| 2026-05-07 02:44 | 41.28504 | 28.71093 | 331 ft | 2 kts | 88° |
| 2026-05-07 02:44 | 41.28505 | 28.71121 | 332 ft | 4 kts | 88° |
| 2026-05-07 02:45 | 41.28506 | 28.71158 | 334 ft | 5 kts | 88° |
| 2026-05-07 02:45 | 41.28507 | 28.71208 | 334 ft | 6 kts | 89° |
| 2026-05-07 02:45 | 41.28508 | 28.71275 | 334 ft | 8 kts | 89° |
| 2026-05-07 02:45 | 41.28509 | 28.71370 | 334 ft | 14 kts | 89° |
| 2026-05-07 02:46 | 41.28511 | 28.71533 | 334 ft | 22 kts | 89° |
| 2026-05-07 02:46 | 41.28513 | 28.71771 | 331 ft | 30 kts | 89° |
| 2026-05-07 02:46 | 41.28517 | 28.72049 | 334 ft | 29 kts | 89° |
| 2026-05-07 02:46 | 41.28515 | 28.72220 | 334 ft | 11 kts | 111° |
| 2026-05-07 02:47 | 41.28450 | 28.72246 | 331 ft | 10 kts | 178° |
| 2026-05-07 02:47 | 41.28373 | 28.72249 | 330 ft | 12 kts | 179° |
| 2026-05-07 02:47 | 41.28281 | 28.72251 | 332 ft | 14 kts | 179° |
| 2026-05-07 02:47 | 41.28174 | 28.72253 | 330 ft | 17 kts | 179° |
| 2026-05-07 02:48 | 41.28053 | 28.72256 | 331 ft | 19 kts | 179° |
| 2026-05-07 02:48 | 41.27913 | 28.72259 | 330 ft | 21 kts | 179° |
| 2026-05-07 02:48 | 41.27756 | 28.72263 | 332 ft | 24 kts | 179° |
| 2026-05-07 02:48 | 41.27582 | 28.72267 | 332 ft | 26 kts | 179° |
| 2026-05-07 02:49 | 41.27390 | 28.72272 | 330 ft | 28 kts | 179° |
| 2026-05-07 02:49 | 41.27300 | 28.72284 | 331 ft | 8 kts | 145° |
| 2026-05-07 02:49 | 41.27290 | 28.72359 | 334 ft | 9 kts | 90° |
| 2026-05-07 02:49 | 41.27290 | 28.72449 | 334 ft | 11 kts | 90° |
| 2026-05-07 02:50 | 41.27290 | 28.72560 | 334 ft | 13 kts | 89° |
| 2026-05-07 02:50 | 41.27291 | 28.72692 | 334 ft | 15 kts | 94° |
| 2026-05-07 02:50 | 41.27205 | 28.72755 | 332 ft | 17 kts | 179° |
| 2026-05-07 02:50 | 41.27073 | 28.72758 | 333 ft | 22 kts | 179° |
| 2026-05-07 02:51 | 41.26893 | 28.72762 | 332 ft | 30 kts | 179° |
| 2026-05-07 02:51 | 41.26742 | 28.72771 | 329 ft | 13 kts | 158° |
| 2026-05-07 02:51 | 41.26716 | 28.72875 | 334 ft | 12 kts | 90° |
| 2026-05-07 02:51 | 41.26717 | 28.72989 | 334 ft | 12 kts | 88° |
| 2026-05-07 02:52 | 41.26719 | 28.73100 | 334 ft | 12 kts | 89° |
| 2026-05-07 02:52 | 41.26732 | 28.73203 | 330 ft | 11 kts | 51° |
| 2026-05-07 02:52 | 41.26802 | 28.73224 | 332 ft | 10 kts | 358° |
| 2026-05-07 02:52 | 41.26862 | 28.73247 | 330 ft | 9 kts | 56° |
| 2026-05-07 02:53 | 41.26869 | 28.73326 | 331 ft | 9 kts | 89° |
| 2026-05-07 02:53 | 41.26870 | 28.73418 | 331 ft | 11 kts | 89° |
| 2026-05-07 02:53 | 41.26871 | 28.73532 | 333 ft | 13 kts | 89° |
| 2026-05-07 02:53 | 41.26873 | 28.73666 | 333 ft | 16 kts | 89° |
| 2026-05-07 02:54 | 41.26875 | 28.73810 | 331 ft | 11 kts | 89° |
| 2026-05-07 02:54 | 41.26852 | 28.73867 | 329 ft | 7 kts | 152° |
| 2026-05-07 02:54 | 41.26809 | 28.73876 | 331 ft | 6 kts | 180° |
| 2026-05-07 02:54 | 41.26768 | 28.73874 | 330 ft | 6 kts | 182° |
| 2026-05-07 02:55 | 41.26739 | 28.73856 | 330 ft | 4 kts | 237° |
| 2026-05-07 02:55 | 41.26736 | 28.73825 | 330 ft | 3 kts | 265° |
| 2026-05-07 02:55 | 41.26734 | 28.73801 | 332 ft | 2 kts | 267° |
| 2026-05-07 02:55 | 41.26734 | 28.73772 | 331 ft | 4 kts | 270° |
| 2026-05-07 02:56 | 41.26734 | 28.73755 | 333 ft | 1 kts | 269° |